createdAt,value
2018-07-25T00:00:13.277Z,99.90
2018-07-25T00:02:41.945Z,99.90
2018-07-25T00:05:10.650Z,99.90
2018-07-25T00:07:39.337Z,99.90
2018-07-25T00:10:09.405Z,99.90
2018-07-25T00:12:38.074Z,99.90
2018-07-25T00:15:06.993Z,99.90
2018-07-25T00:17:35.665Z,99.90
2018-07-25T00:20:04.832Z,99.90
2018-07-25T00:22:33.551Z,99.90
2018-07-25T00:25:02.855Z,99.90
2018-07-25T00:27:31.558Z,99.90
2018-07-25T00:30:00.267Z,99.90
2018-07-25T00:32:28.927Z,99.90
2018-07-25T00:34:57.593Z,99.90
2018-07-25T00:37:26.238Z,99.90
2018-07-25T00:39:54.910Z,99.90
2018-07-25T00:42:23.575Z,99.90
2018-07-25T00:44:52.262Z,99.90
2018-07-25T00:47:20.934Z,99.90
2018-07-25T00:49:49.620Z,99.90
2018-07-25T00:52:18.308Z,99.90
2018-07-25T00:54:46.996Z,99.90
2018-07-25T00:57:15.723Z,99.90
2018-07-25T00:59:44.346Z,99.90
2018-07-25T01:02:13.017Z,99.90
2018-07-25T01:04:41.656Z,99.90
2018-07-25T01:07:10.349Z,99.90
2018-07-25T01:09:39.028Z,99.90
2018-07-25T01:12:07.874Z,99.90
2018-07-25T01:14:36.552Z,99.90
2018-07-25T01:17:05.314Z,99.90
2018-07-25T01:19:33.965Z,99.90
2018-07-25T01:22:02.666Z,99.90
2018-07-25T01:24:31.336Z,99.90
2018-07-25T01:27:00.122Z,99.90
2018-07-25T01:29:32.398Z,99.90
2018-07-25T01:32:01.068Z,99.90
2018-07-25T01:34:29.708Z,99.90
2018-07-25T01:36:58.411Z,99.90
2018-07-25T01:39:27.098Z,99.90
2018-07-25T01:41:55.832Z,99.90
2018-07-25T01:44:24.514Z,99.90
2018-07-25T01:46:53.160Z,99.90
2018-07-25T01:49:21.853Z,99.90
2018-07-25T01:51:50.538Z,99.90
2018-07-25T01:54:19.253Z,99.90
2018-07-25T01:56:47.946Z,99.90
2018-07-25T01:59:16.844Z,99.90
2018-07-25T02:01:45.550Z,99.90
2018-07-25T02:04:14.187Z,99.90
2018-07-25T02:06:42.921Z,99.90
2018-07-25T02:09:12.023Z,99.90
2018-07-25T02:11:40.722Z,99.90
2018-07-25T02:14:09.429Z,99.90
2018-07-25T02:16:38.258Z,99.90
2018-07-25T02:19:06.940Z,99.90
2018-07-25T02:21:35.658Z,99.90
2018-07-25T02:24:04.350Z,99.90
2018-07-25T02:29:01.458Z,99.90
2018-07-25T02:31:30.111Z,99.90
2018-07-25T02:34:04.139Z,99.90
2018-07-25T02:36:32.805Z,99.90
2018-07-25T02:39:01.484Z,99.90
2018-07-25T02:41:30.197Z,99.90
2018-07-25T02:43:58.906Z,99.90
2018-07-25T02:46:27.585Z,99.90
2018-07-25T02:48:56.235Z,99.90
2018-07-25T02:53:53.261Z,99.90
2018-07-25T02:56:21.951Z,99.90
2018-07-25T02:58:50.989Z,99.90
2018-07-25T03:01:19.642Z,99.90
2018-07-25T03:03:48.301Z,99.90
2018-07-25T03:06:17.167Z,99.90
2018-07-25T03:08:45.837Z,99.90
2018-07-25T03:11:14.562Z,99.90
2018-07-25T03:13:43.224Z,99.90
2018-07-25T03:16:11.872Z,99.90
2018-07-25T03:18:40.521Z,99.90
2018-07-25T03:21:09.227Z,99.90
2018-07-25T03:23:37.877Z,99.90
2018-07-25T03:26:06.613Z,99.90
2018-07-25T03:28:35.296Z,99.90
2018-07-25T03:31:04.016Z,99.90
2018-07-25T03:36:01.053Z,99.90
2018-07-25T03:38:29.869Z,99.90
2018-07-25T03:40:58.511Z,99.90
2018-07-25T03:43:27.349Z,99.90
2018-07-25T03:45:56.018Z,99.90
2018-07-25T03:48:24.737Z,99.90
2018-07-25T03:50:53.456Z,99.90
2018-07-25T03:53:22.154Z,99.90
2018-07-25T03:55:50.890Z,99.90
2018-07-25T03:58:19.562Z,99.90
2018-07-25T04:00:48.230Z,99.90
2018-07-25T04:03:16.900Z,99.90
2018-07-25T04:05:45.569Z,99.90
2018-07-25T04:08:14.284Z,99.90
2018-07-25T04:10:47.372Z,99.90
2018-07-25T04:13:16.608Z,99.90
2018-07-25T04:15:45.405Z,99.90
2018-07-25T04:18:14.125Z,99.90
2018-07-25T04:20:43.445Z,99.90
2018-07-25T04:23:12.129Z,99.90
2018-07-25T04:25:40.844Z,99.90
2018-07-25T04:28:09.565Z,99.90
2018-07-25T04:30:38.326Z,99.90
2018-07-25T04:33:07.037Z,99.90
2018-07-25T04:35:35.913Z,99.90
2018-07-25T04:38:04.646Z,99.90
2018-07-25T04:40:33.353Z,99.90
2018-07-25T04:43:02.045Z,99.90
2018-07-25T04:45:30.738Z,99.90
2018-07-25T04:47:59.400Z,99.90
2018-07-25T04:50:28.077Z,99.90
2018-07-25T04:52:56.782Z,99.90
2018-07-25T04:55:25.460Z,99.90
2018-07-25T04:57:54.328Z,99.90
2018-07-25T05:00:23.014Z,99.90
2018-07-25T05:02:51.705Z,99.90
2018-07-25T05:05:20.350Z,99.90
2018-07-25T05:07:49.041Z,99.90
2018-07-25T05:10:17.707Z,99.90
2018-07-25T05:12:46.385Z,99.90
2018-07-25T05:15:15.054Z,99.90
2018-07-25T05:17:43.770Z,99.90
2018-07-25T05:20:12.446Z,99.90
2018-07-25T05:22:41.169Z,99.90
2018-07-25T05:25:09.874Z,99.90
2018-07-25T05:27:38.537Z,99.90
2018-07-25T05:30:07.219Z,99.90
2018-07-25T05:32:35.921Z,99.90
2018-07-25T05:35:04.808Z,99.90
2018-07-25T05:37:33.955Z,99.90
2018-07-25T05:40:02.627Z,99.90
2018-07-25T05:42:31.317Z,99.90
2018-07-25T05:44:59.985Z,99.90
2018-07-25T05:47:28.808Z,99.90
2018-07-25T05:49:57.539Z,99.90
2018-07-25T05:52:26.258Z,99.90
2018-07-25T05:54:54.929Z,99.90
2018-07-25T05:57:23.593Z,99.90
2018-07-25T05:59:52.304Z,99.90
2018-07-25T06:02:21.013Z,99.90
2018-07-25T06:04:49.708Z,99.90
2018-07-25T06:07:18.418Z,99.90
2018-07-25T06:12:15.469Z,99.90
2018-07-25T06:14:44.212Z,99.90
2018-07-25T06:17:12.909Z,99.90
2018-07-25T06:19:41.640Z,99.90
2018-07-25T06:22:10.328Z,99.90
2018-07-25T06:24:39.055Z,99.90
2018-07-25T06:27:07.755Z,99.90
2018-07-25T06:29:36.450Z,99.90
2018-07-25T06:32:05.126Z,99.90
2018-07-25T06:34:33.864Z,99.90
2018-07-25T06:37:02.523Z,99.90
2018-07-25T06:39:31.242Z,99.90
2018-07-25T06:41:59.965Z,99.90
2018-07-25T06:44:28.672Z,99.90
2018-07-25T06:46:57.426Z,99.90
2018-07-25T06:49:26.120Z,99.90
2018-07-25T06:51:54.820Z,99.90
2018-07-25T06:54:23.494Z,99.90
2018-07-25T06:56:52.217Z,99.90
2018-07-25T06:59:20.944Z,99.90
2018-07-25T07:01:49.632Z,99.90
2018-07-25T07:04:18.324Z,99.90
2018-07-25T07:06:47.092Z,99.90
2018-07-25T07:09:15.711Z,99.90
2018-07-25T07:11:44.421Z,99.90
2018-07-25T07:14:13.101Z,99.90
2018-07-25T07:16:41.763Z,99.90
2018-07-25T07:19:10.453Z,99.90
2018-07-25T07:21:39.176Z,99.90
2018-07-25T07:24:07.924Z,99.90
2018-07-25T07:26:36.573Z,99.90
2018-07-25T07:29:05.474Z,99.90
2018-07-25T07:31:34.248Z,99.90
2018-07-25T07:34:02.929Z,99.90
2018-07-25T07:36:31.572Z,99.90
2018-07-25T07:39:00.277Z,99.90
2018-07-25T07:41:28.909Z,99.90
2018-07-25T07:43:57.574Z,99.90
2018-07-25T07:46:26.233Z,99.40
2018-07-25T07:48:54.918Z,98.90
2018-07-25T07:51:23.605Z,98.30
2018-07-25T07:53:52.309Z,97.90
2018-07-25T07:56:20.927Z,98.40
2018-07-25T08:03:46.141Z,96.00
2018-07-25T08:06:14.770Z,96.40
2018-07-25T08:08:43.403Z,95.80
2018-07-25T08:11:16.241Z,95.10
2018-07-25T08:13:44.901Z,94.50
2018-07-25T08:18:42.294Z,93.00
2018-07-25T08:21:11.333Z,90.70
2018-07-25T08:23:40.242Z,90.20
2018-07-25T08:26:08.912Z,89.80
2018-07-25T08:28:37.574Z,90.60
2018-07-25T08:31:06.447Z,90.20
2018-07-25T08:33:35.102Z,84.80
2018-07-25T08:36:03.847Z,83.50
2018-07-25T08:38:40.673Z,83.20
2018-07-25T08:41:09.412Z,80.40
2018-07-25T08:43:39.193Z,81.30
2018-07-25T08:46:09.025Z,79.90
2018-07-25T08:48:37.990Z,77.70
2018-07-25T08:51:06.683Z,75.80
2018-07-25T08:53:35.746Z,75.60
2018-07-25T08:56:04.458Z,75.30
2018-07-25T08:58:33.178Z,73.40
2018-07-25T09:01:01.964Z,71.80
2018-07-25T09:03:30.689Z,72.60
2018-07-25T09:05:59.347Z,71.70
2018-07-25T09:08:28.030Z,71.70
2018-07-25T09:10:56.686Z,71.10
2018-07-25T09:13:25.327Z,70.80
2018-07-25T09:15:54.001Z,71.20
2018-07-25T09:18:22.648Z,68.60
2018-07-25T09:20:51.318Z,69.10
2018-07-25T09:23:19.995Z,69.30
2018-07-25T09:25:48.685Z,68.60
2018-07-25T09:28:17.322Z,69.10
2018-07-25T09:30:46.046Z,69.00
2018-07-25T09:33:14.681Z,69.00
2018-07-25T09:35:43.362Z,66.30
2018-07-25T09:38:11.989Z,65.00
2018-07-25T09:40:40.653Z,66.60
2018-07-25T09:43:09.329Z,68.10
2018-07-25T09:45:37.999Z,67.00
2018-07-25T09:48:06.677Z,64.90
2018-07-25T09:50:35.347Z,65.60
2018-07-25T09:53:04.132Z,65.90
2018-07-25T09:55:32.717Z,63.90
2018-07-25T09:58:01.397Z,64.30
2018-07-25T10:00:35.258Z,63.00
2018-07-25T10:03:03.977Z,63.50
2018-07-25T10:05:32.641Z,63.90
2018-07-25T10:08:01.302Z,64.40
2018-07-25T10:10:29.965Z,65.80
2018-07-25T10:12:58.649Z,63.90
2018-07-25T10:15:27.298Z,65.00
2018-07-25T10:17:58.813Z,63.30
2018-07-25T10:20:34.115Z,62.10
2018-07-25T10:23:02.831Z,62.80
2018-07-25T10:25:31.610Z,60.10
2018-07-25T10:28:00.361Z,59.50
2018-07-25T10:30:29.106Z,59.60
2018-07-25T10:32:57.889Z,59.40
2018-07-25T10:35:26.672Z,58.80
2018-07-25T10:37:55.439Z,58.60
2018-07-25T10:40:24.135Z,58.60
2018-07-25T10:42:52.886Z,59.20
2018-07-25T10:45:21.605Z,57.80
2018-07-25T10:47:50.234Z,58.30
2018-07-25T10:50:18.950Z,58.90
2018-07-25T10:52:47.592Z,58.80
2018-07-25T10:55:16.297Z,57.60
2018-07-25T10:57:44.969Z,56.70
2018-07-25T11:00:13.665Z,55.50
2018-07-25T11:02:42.331Z,53.90
2018-07-25T11:05:11.013Z,53.40
2018-07-25T11:07:39.673Z,52.50
2018-07-25T11:10:08.366Z,52.70
2018-07-25T11:12:37.041Z,52.90
2018-07-25T11:15:05.775Z,51.10
2018-07-25T11:17:34.438Z,52.10
2018-07-25T11:20:03.199Z,51.20
2018-07-25T11:22:31.921Z,49.10
2018-07-25T11:25:03.413Z,49.80
2018-07-25T11:27:32.080Z,48.50
2018-07-25T11:30:00.774Z,47.80
2018-07-25T11:32:29.469Z,48.20
2018-07-25T11:34:58.126Z,46.80
2018-07-25T11:37:26.773Z,46.90
2018-07-25T11:39:55.405Z,46.50
2018-07-25T11:42:24.103Z,45.30
2018-07-25T11:44:52.725Z,47.50
2018-07-25T11:47:21.384Z,45.60
2018-07-25T11:49:50.038Z,45.70
2018-07-25T11:52:18.698Z,45.60
2018-07-25T11:54:47.365Z,45.40
2018-07-25T11:57:16.078Z,45.30
2018-07-25T11:59:44.750Z,45.10
2018-07-25T12:02:13.433Z,43.70
2018-07-25T12:04:42.069Z,42.20
2018-07-25T12:07:10.710Z,42.70
2018-07-25T12:09:39.394Z,43.20
2018-07-25T12:12:08.066Z,42.90
2018-07-25T12:14:36.746Z,42.70
2018-07-25T12:17:05.481Z,44.00
2018-07-25T12:19:34.145Z,44.50
2018-07-25T12:22:02.828Z,42.90
2018-07-25T12:24:31.531Z,41.60
2018-07-25T12:27:00.241Z,41.60
2018-07-25T12:29:29.034Z,42.60
2018-07-25T12:31:57.832Z,43.10
2018-07-25T12:34:26.454Z,43.30
2018-07-25T12:36:55.138Z,43.60
2018-07-25T12:39:23.777Z,44.00
2018-07-25T12:41:52.485Z,43.80
2018-07-25T12:44:21.166Z,44.80
2018-07-25T12:46:49.850Z,42.80
2018-07-25T12:49:18.537Z,40.80
2018-07-25T12:51:47.239Z,40.00
2018-07-25T12:54:15.949Z,41.00
2018-07-25T12:56:44.688Z,41.40
2018-07-25T12:59:13.330Z,41.00
2018-07-25T13:01:42.057Z,40.80
2018-07-25T13:04:10.693Z,40.30
2018-07-25T13:06:39.714Z,39.60
2018-07-25T13:09:10.180Z,39.80
2018-07-25T13:11:38.846Z,40.50
2018-07-25T13:14:07.666Z,40.30
2018-07-25T13:16:36.648Z,40.60
2018-07-25T13:19:05.389Z,39.20
2018-07-25T13:21:34.053Z,38.20
2018-07-25T13:24:02.715Z,38.80
2018-07-25T13:26:31.355Z,37.60
2018-07-25T13:29:00.019Z,36.50
2018-07-25T13:31:28.718Z,37.00
2018-07-25T13:33:57.360Z,37.30
2018-07-25T13:36:26.042Z,37.70
2018-07-25T13:38:54.777Z,36.70
2018-07-25T13:41:37.685Z,36.00
2018-07-25T13:44:06.558Z,35.00
2018-07-25T13:46:35.334Z,36.00
2018-07-25T13:49:04.058Z,35.30
2018-07-25T13:51:32.932Z,35.00
2018-07-25T13:54:01.701Z,33.30
2018-07-25T13:56:30.404Z,33.10
2018-07-25T13:58:59.141Z,33.60
2018-07-25T14:01:27.928Z,32.30
2018-07-25T14:03:56.784Z,32.90
2018-07-25T14:06:25.553Z,31.40
2018-07-25T14:08:54.325Z,33.10
2018-07-25T14:11:23.038Z,32.40
2018-07-25T14:13:51.986Z,33.20
2018-07-25T14:16:20.707Z,33.80
2018-07-25T14:18:49.689Z,33.90
2018-07-25T14:21:19.166Z,33.40
2018-07-25T14:23:47.937Z,33.40
2018-07-25T14:26:16.646Z,33.20
2018-07-25T14:28:45.361Z,32.70
2018-07-25T14:31:14.083Z,32.80
2018-07-25T14:33:42.826Z,31.70
2018-07-25T14:36:11.538Z,32.30
2018-07-25T14:38:40.213Z,31.50
2018-07-25T14:41:09.067Z,31.60
2018-07-25T14:43:37.733Z,31.40
2018-07-25T14:46:06.854Z,31.10
2018-07-25T14:48:35.595Z,31.20
2018-07-25T14:51:04.401Z,30.70
2018-07-25T14:53:33.075Z,31.60
2018-07-25T14:56:01.778Z,31.10
2018-07-25T14:58:30.519Z,31.60
2018-07-25T15:00:59.218Z,30.90
2018-07-25T15:03:27.921Z,30.00
2018-07-25T15:05:56.668Z,30.20
2018-07-25T15:08:25.422Z,30.00
2018-07-25T15:10:54.158Z,30.40
2018-07-25T15:13:22.864Z,30.70
2018-07-25T15:15:51.565Z,30.40
2018-07-25T15:18:20.286Z,30.20
2018-07-25T15:20:48.982Z,31.00
2018-07-25T15:23:28.942Z,31.10
2018-07-25T15:25:57.654Z,30.80
2018-07-25T15:28:26.354Z,30.00
2018-07-25T15:30:55.059Z,30.50
2018-07-25T15:33:23.802Z,30.60
2018-07-25T15:35:52.506Z,30.20
2018-07-25T15:38:21.198Z,30.10
2018-07-25T15:40:49.885Z,31.40
2018-07-25T15:43:18.606Z,30.90
2018-07-25T15:45:47.478Z,31.50
2018-07-25T15:48:16.226Z,30.20
2018-07-25T15:50:44.962Z,30.20
2018-07-25T15:53:13.633Z,30.50
2018-07-25T15:55:42.325Z,31.80
2018-07-25T15:58:11.094Z,31.60
2018-07-25T16:00:39.777Z,31.30
2018-07-25T16:03:08.806Z,30.80
2018-07-25T16:05:37.582Z,30.90
2018-07-25T16:08:06.322Z,29.90
2018-07-25T16:10:34.994Z,31.40
2018-07-25T16:13:03.738Z,30.10
2018-07-25T16:15:32.461Z,30.60
2018-07-25T16:18:01.145Z,30.30
2018-07-25T16:20:29.850Z,31.30
2018-07-25T16:22:58.617Z,30.40
2018-07-25T16:25:27.367Z,30.50
2018-07-25T16:27:56.090Z,30.80
2018-07-25T16:30:24.802Z,32.60
2018-07-25T16:32:53.524Z,31.20
2018-07-25T16:35:22.219Z,31.70
2018-07-25T16:37:50.943Z,30.90
2018-07-25T16:40:19.707Z,29.90
2018-07-25T16:42:48.403Z,30.70
2018-07-25T16:45:17.105Z,29.80
2018-07-25T16:47:45.885Z,30.00
2018-07-25T16:50:14.559Z,30.90
2018-07-25T16:52:43.234Z,30.30
2018-07-25T16:55:12.123Z,30.10
2018-07-25T16:57:40.846Z,30.20
2018-07-25T17:00:09.570Z,31.30
2018-07-25T17:14:15.660Z,29.80
2018-07-25T17:16:44.386Z,30.80
2018-07-25T17:19:13.026Z,29.70
2018-07-25T17:21:41.730Z,29.90
2018-07-25T17:24:10.449Z,30.30
2018-07-25T17:26:39.175Z,31.60
2018-07-25T17:29:07.917Z,30.10
2018-07-25T17:37:39.576Z,30.50
2018-07-25T17:43:19.903Z,32.30
2018-07-25T17:45:48.600Z,33.80
2018-07-25T17:48:17.349Z,34.70
2018-07-25T17:50:46.082Z,35.10
2018-07-25T17:53:14.952Z,35.30
2018-07-25T17:55:43.653Z,35.80
2018-07-25T17:58:12.369Z,36.00
2018-07-25T18:00:41.108Z,36.60
2018-07-25T18:06:24.225Z,37.30
2018-07-25T18:12:16.663Z,38.10
2018-07-25T18:14:45.384Z,38.10
2018-07-25T18:17:14.122Z,38.30
2018-07-25T18:19:42.839Z,38.50
2018-07-25T18:22:11.529Z,38.70
2018-07-25T18:24:40.297Z,40.00
2018-07-25T18:27:09.012Z,39.20
2018-07-25T18:29:42.019Z,40.40
2018-07-25T18:32:10.858Z,39.40
2018-07-25T18:34:39.551Z,39.80
2018-07-25T18:37:08.297Z,40.10
2018-07-25T18:39:37.321Z,40.80
2018-07-25T18:42:06.500Z,42.30
2018-07-25T18:44:36.627Z,42.90
2018-07-25T18:47:05.408Z,43.50
2018-07-25T18:49:34.074Z,44.10
2018-07-25T18:52:03.208Z,44.50
2018-07-25T18:54:31.897Z,45.10
2018-07-25T18:57:00.682Z,45.30
2018-07-25T18:59:29.577Z,45.40
2018-07-25T19:02:03.244Z,46.20
2018-07-25T19:04:36.740Z,46.30
2018-07-25T19:07:10.520Z,46.80
2018-07-25T19:09:44.061Z,47.40
2018-07-25T19:12:15.877Z,48.50
2018-07-25T19:14:50.335Z,48.00
2018-07-25T19:17:19.070Z,48.10
2018-07-25T19:19:47.717Z,48.30
2018-07-25T19:22:16.406Z,48.40
2018-07-25T19:24:45.106Z,48.80
2018-07-25T19:27:32.963Z,49.10
2018-07-25T19:30:32.060Z,49.40
2018-07-25T19:33:26.277Z,49.90
2018-07-25T19:36:25.068Z,50.30
2018-07-25T19:39:22.893Z,50.70
2018-07-25T19:42:19.831Z,50.90
2018-07-25T19:45:21.234Z,51.60
2018-07-25T19:48:24.038Z,51.70
2018-07-25T19:51:19.982Z,52.00
2018-07-25T19:54:19.471Z,52.40
2018-07-25T20:01:16.170Z,55.30
2018-07-25T20:04:12.584Z,55.60
2018-07-25T20:10:27.379Z,56.20
2018-07-25T20:13:27.935Z,57.20
2018-07-25T20:16:30.344Z,58.70
2018-07-25T20:19:31.824Z,59.10
2018-07-25T20:22:25.921Z,59.90
2018-07-25T20:25:24.348Z,60.40
2018-07-25T20:28:20.465Z,61.90
2018-07-25T20:31:19.229Z,62.70
2018-07-25T20:34:17.744Z,64.20
2018-07-25T20:40:01.449Z,65.60
2018-07-25T20:42:58.605Z,66.60
2018-07-25T20:45:54.054Z,68.30
2018-07-25T20:48:46.481Z,70.40
2018-07-25T20:51:50.153Z,72.70
2018-07-25T20:54:32.501Z,76.60
2018-07-25T20:57:01.173Z,78.40
2018-07-25T20:59:29.818Z,81.20
2018-07-25T21:01:58.686Z,83.30
2018-07-25T21:04:27.321Z,85.70
2018-07-25T21:06:55.980Z,87.50
2018-07-25T21:09:24.673Z,88.30
2018-07-25T21:11:53.295Z,89.50
2018-07-25T21:14:22.037Z,90.10
2018-07-25T21:16:50.677Z,90.70
2018-07-25T21:19:19.365Z,91.30
2018-07-25T21:21:48.044Z,91.80
2018-07-25T21:24:16.734Z,92.60
2018-07-25T21:26:45.485Z,92.80
2018-07-25T21:29:14.165Z,94.00
2018-07-25T21:31:42.849Z,94.50
2018-07-25T21:34:11.498Z,95.00
2018-07-25T21:36:40.207Z,95.30
2018-07-25T21:39:10.535Z,95.60
2018-07-25T21:41:39.222Z,96.40
2018-07-25T21:44:07.884Z,97.00
2018-07-25T21:46:36.614Z,97.70
2018-07-25T21:49:05.588Z,98.20
2018-07-25T21:51:34.269Z,98.80
2018-07-25T21:54:02.945Z,99.40
2018-07-25T21:56:31.576Z,99.80
2018-07-25T21:59:00.253Z,99.70
2018-07-25T22:01:28.885Z,99.90
2018-07-25T22:03:57.581Z,99.90
2018-07-25T22:06:26.252Z,99.90
2018-07-25T22:08:54.937Z,99.90
2018-07-25T22:11:23.622Z,99.90
2018-07-25T22:13:55.626Z,99.90
2018-07-25T22:16:25.277Z,99.90
2018-07-25T22:18:53.913Z,99.90
2018-07-25T22:21:22.645Z,99.90
2018-07-25T22:23:51.373Z,99.90
2018-07-25T22:26:20.046Z,99.90
2018-07-25T22:28:48.701Z,99.90
2018-07-25T22:31:17.370Z,99.90
2018-07-25T22:33:46.013Z,99.90
2018-07-25T22:36:14.669Z,99.90
2018-07-25T22:38:43.304Z,99.90
2018-07-25T22:41:11.974Z,99.90
2018-07-25T22:43:40.646Z,99.90
2018-07-25T22:46:09.286Z,99.90
2018-07-25T22:48:37.971Z,99.90
2018-07-25T22:51:07.080Z,99.90
2018-07-25T22:53:35.733Z,99.90
2018-07-25T22:56:04.409Z,99.90
2018-07-25T22:58:33.093Z,99.90
2018-07-25T23:01:01.742Z,99.90
2018-07-25T23:03:30.385Z,99.90
2018-07-25T23:05:59.048Z,99.90
2018-07-25T23:08:27.757Z,99.90
2018-07-25T23:10:56.481Z,99.90
2018-07-25T23:13:25.110Z,99.90
2018-07-25T23:15:53.777Z,99.90
2018-07-25T23:18:22.415Z,99.90
2018-07-25T23:20:51.070Z,99.90
2018-07-25T23:23:19.705Z,99.90
2018-07-25T23:25:48.400Z,99.90
2018-07-25T23:28:17.052Z,99.90
2018-07-25T23:30:45.699Z,99.90
2018-07-25T23:33:14.409Z,99.90
2018-07-25T23:35:43.042Z,99.90
2018-07-25T23:38:11.726Z,99.90
2018-07-25T23:40:40.377Z,99.90
2018-07-25T23:43:09.038Z,99.90
2018-07-25T23:45:37.716Z,99.90
2018-07-25T23:48:06.373Z,99.90
2018-07-25T23:50:41.786Z,99.90
2018-07-25T23:53:10.448Z,99.90
2018-07-25T23:55:39.081Z,99.90
2018-07-25T23:58:07.710Z,99.90
